18:32
Airports
History
Links
Donate
Help keep this website running!
PayPal
Bitcoin
This page is community maintained. The information is intended for PC simulator navigation or reference.
Always use approved charts for navigation.
SBCZ
CRUZEIRO DO SUL
CRUZEIRO DO SUL (SBCZ)
Cruzeiro do Sul, Acre, Brazil (69980)
(C)
Lat/Lng:7° 35' 59.66" S / 72° 46' 10.17" W
-7.599906 / -72.769491
Elevation:637'ft / 194mMSL
ID / ICAO:SBCZ
Runways:1
Longest:10-28
Asphalt 2,398m / 7,867ft
Controlled:Yes
METAR18:00 GMT 2018-02-21
Altimeter: 29.85
Visibility: 6.2 statute miles
Wind: 2 knots (from 030°)
Temp: 31°c / 88°f
Humidity: 62.5%

METAR: SBCZ 211800Z 03002KT 9999 SCT030 BKN100 31/23 Q1011

(Powered by phpweather)
Airport Radio Frequencies
Tower: 125.7
Runway 10 / 28
Dimensions:2397.9 x 45.1m 7867' x 148'ft
Surface:Asphalt
Edge Lights:Low intensity
Runway 10 [A]Runway 28 [B]
Heading:092°TH 272°TH
Lat:
Lng:
7° 35' 57.64"S
72° 46' 49.26"W
7° 36' 1.68"S
72° 45' 31.07"W
User Notes and Comments
7° 35' 59.66" S / 72° 46' 10.17" W
Distance To
Airport ID:
Nearby Airports
(U) Porto Walter 46.4 NM
SSPR S 177°
(C) Los Colonizadores 76.9 NM
SKSA NE 54°
(C) La Gloria 90.2 NM
SKYC SW 219°
(U) Marechal Thaumaturgo 93.9 NM
SSPV S 180°
(U) Jordao 123.4 NM
SSQB SSE 152°
(C) Tipishsa 134.1 NM
SPPB S 179°
(C) CAP FAP DAVID ABENZUR RENGIFO INTL 134.7 NM
SPCL ( WX ) WSW 246°
VFR Chart
Flight Planning at SkyVector.com